createdAt,value
2023-02-16T06:01:51.517Z,23.55
2023-02-16T06:04:19.866Z,24.40
2023-02-16T06:06:47.202Z,25.80
2023-02-16T06:09:13.846Z,24.67
2023-02-16T06:11:41.075Z,25.35
2023-02-16T06:14:10.555Z,25.05
2023-02-16T06:16:39.917Z,24.05
2023-02-16T06:19:07.029Z,22.95
2023-02-16T06:21:34.698Z,23.40
2023-02-16T06:24:02.507Z,24.58
2023-02-16T06:26:29.137Z,27.35
2023-02-16T06:28:56.619Z,25.50
2023-02-16T06:31:25.022Z,25.20
2023-02-16T06:33:53.114Z,22.48
2023-02-16T06:36:20.284Z,25.40
2023-02-16T06:38:47.622Z,22.60
2023-02-16T06:41:31.842Z,21.95
2023-02-16T06:44:05.140Z,23.38
2023-02-16T06:46:32.939Z,22.52
2023-02-16T06:49:00.078Z,23.90
2023-02-16T06:51:27.143Z,23.23
2023-02-16T06:53:54.546Z,21.98
2023-02-16T06:56:21.239Z,23.27
2023-02-16T06:58:48.655Z,24.30
2023-02-16T07:01:15.468Z,23.15
2023-02-16T07:03:42.448Z,22.80
2023-02-16T07:06:09.292Z,22.80
2023-02-16T07:08:36.557Z,21.45
2023-02-16T07:11:04.252Z,20.70
2023-02-16T07:13:31.825Z,22.55
2023-02-16T07:15:58.403Z,21.90
2023-02-16T07:18:25.631Z,22.83
2023-02-16T07:20:52.626Z,22.58
2023-02-16T07:23:19.223Z,22.95
2023-02-16T07:25:46.093Z,23.35
2023-02-16T07:28:13.887Z,23.33
2023-02-16T07:30:41.113Z,22.75
2023-02-16T07:33:08.389Z,23.60
2023-02-16T07:35:35.860Z,22.58
2023-02-16T07:38:04.707Z,22.38
2023-02-16T07:40:31.421Z,21.80
2023-02-16T07:43:03.178Z,23.45
2023-02-16T07:45:32.483Z,22.83
2023-02-16T07:50:27.295Z,22.65
2023-02-16T07:52:54.586Z,22.40
2023-02-16T07:55:21.216Z,20.58
2023-02-16T07:57:49.730Z,21.33
2023-02-16T08:00:16.705Z,20.67
2023-02-16T08:02:43.954Z,21.25
2023-02-16T08:05:10.841Z,21.00
2023-02-16T08:07:38.462Z,20.88
2023-02-16T08:10:06.741Z,20.70
2023-02-16T08:12:34.266Z,20.50
2023-02-16T08:15:00.880Z,22.00
2023-02-16T08:17:28.098Z,18.80
2023-02-16T08:19:54.788Z,19.73
2023-02-16T08:22:22.185Z,21.15
2023-02-16T08:24:48.768Z,19.33
2023-02-16T08:27:16.046Z,19.70
2023-02-16T08:29:42.677Z,19.38
2023-02-16T08:32:13.313Z,21.13
2023-02-16T08:34:43.149Z,20.30
2023-02-16T08:37:13.553Z,22.48
2023-02-16T08:39:40.732Z,19.90
2023-02-16T08:42:08.794Z,21.23
2023-02-16T08:44:35.433Z,21.45
2023-02-16T08:47:03.001Z,20.13
2023-02-16T08:49:29.701Z,19.92
2023-02-16T08:51:59.024Z,19.55
2023-02-16T08:54:30.344Z,19.70
2023-02-16T08:57:00.037Z,20.48
2023-02-16T08:59:28.986Z,18.80
2023-02-16T09:01:57.979Z,17.70
2023-02-16T09:04:25.716Z,19.77
2023-02-16T09:06:53.718Z,20.33
2023-02-16T09:09:20.414Z,20.92
2023-02-16T09:11:49.861Z,18.60
2023-02-16T09:14:21.455Z,21.35
2023-02-16T09:16:49.547Z,19.83
2023-02-16T09:19:19.690Z,20.27
2023-02-16T09:21:49.008Z,20.60
2023-02-16T09:24:16.005Z,20.20
2023-02-16T09:26:44.904Z,20.23
2023-02-16T09:29:12.945Z,18.88
2023-02-16T09:31:40.319Z,20.00
2023-02-16T09:34:30.534Z,19.55
2023-02-16T09:36:58.602Z,19.00
2023-02-16T09:39:25.453Z,19.25
2023-02-16T09:42:10.354Z,19.27
2023-02-16T09:45:11.437Z,17.45
2023-02-16T09:47:42.340Z,18.17
2023-02-16T09:50:52.069Z,21.38
2023-02-16T09:53:22.807Z,20.40
2023-02-16T09:56:28.405Z,20.13
2023-02-16T09:59:14.662Z,18.27
2023-02-16T10:02:15.632Z,19.17
2023-02-16T10:04:48.814Z,18.70
2023-02-16T10:07:29.698Z,19.98
2023-02-16T10:09:58.261Z,18.40
2023-02-16T10:12:29.359Z,18.88
2023-02-16T10:15:07.501Z,18.45
2023-02-16T10:17:45.292Z,19.27
2023-02-16T10:20:34.521Z,19.58
2023-02-16T10:23:35.021Z,20.48
2023-02-16T10:26:28.538Z,19.80
2023-02-16T10:29:00.334Z,19.52
2023-02-16T10:31:40.129Z,19.33
2023-02-16T10:34:38.388Z,19.63
2023-02-16T10:37:39.431Z,17.80
2023-02-16T10:40:12.165Z,20.20
2023-02-16T10:42:46.046Z,19.63
2023-02-16T10:45:32.136Z,19.42
2023-02-16T10:48:00.016Z,20.08
2023-02-16T10:50:33.071Z,20.50
2023-02-16T10:53:08.734Z,20.08
2023-02-16T10:55:37.605Z,20.92
2023-02-16T10:58:04.887Z,19.35
2023-02-16T11:00:53.377Z,18.75
2023-02-16T11:03:24.883Z,19.70
2023-02-16T11:05:53.306Z,19.55
2023-02-16T11:08:20.864Z,20.03
2023-02-16T11:10:50.980Z,19.95
2023-02-16T11:13:34.107Z,20.48
2023-02-16T11:16:06.917Z,19.50
2023-02-16T11:18:42.136Z,19.42
2023-02-16T11:21:10.829Z,20.35
2023-02-16T11:23:57.562Z,19.70
2023-02-16T11:26:26.023Z,20.08
2023-02-16T11:28:53.741Z,20.57
2023-02-16T11:31:30.491Z,19.58
2023-02-16T11:34:06.212Z,20.92
2023-02-16T11:36:40.399Z,20.60
2023-02-16T11:39:31.482Z,20.38
2023-02-16T11:42:02.765Z,20.67
2023-02-16T11:44:42.230Z,19.35
2023-02-16T11:47:29.494Z,20.30
2023-02-16T11:50:27.211Z,20.23
2023-02-16T11:52:57.830Z,21.20
2023-02-16T11:55:33.355Z,20.27
2023-02-16T11:58:22.744Z,21.27
2023-02-16T12:03:50.428Z,21.00
2023-02-16T12:06:27.066Z,21.40
2023-02-16T12:09:11.074Z,22.38
2023-02-16T12:12:00.525Z,21.25
2023-02-16T12:14:49.081Z,20.42
2023-02-16T12:17:28.651Z,21.05
2023-02-16T12:20:05.663Z,19.95
2023-02-16T12:22:55.870Z,20.17
2023-02-16T12:25:52.001Z,19.05
2023-02-16T12:28:42.235Z,20.55
2023-02-16T12:31:34.732Z,20.95
2023-02-16T12:34:13.953Z,19.75
2023-02-16T12:36:53.431Z,20.02
2023-02-16T12:39:30.294Z,19.75
2023-02-16T12:42:36.140Z,20.08
2023-02-16T12:45:15.157Z,20.95
2023-02-16T12:47:53.993Z,20.98
2023-02-16T12:50:33.653Z,19.90
2023-02-16T12:53:07.181Z,20.88
2023-02-16T12:55:43.359Z,19.27
2023-02-16T12:58:16.286Z,20.50
2023-02-16T13:00:49.946Z,19.15
2023-02-16T13:03:16.521Z,19.83
2023-02-16T13:05:49.220Z,20.67
2023-02-16T13:08:47.415Z,19.52
2023-02-16T13:11:23.822Z,18.10
2023-02-16T13:13:53.609Z,19.65
2023-02-16T13:16:32.191Z,18.50
2023-02-16T13:18:59.076Z,19.52
2023-02-16T13:21:51.674Z,20.05
2023-02-16T13:24:33.719Z,18.65
2023-02-16T13:27:01.424Z,18.40
2023-02-16T13:29:37.385Z,19.50
2023-02-16T13:32:22.697Z,18.05
2023-02-16T13:35:40.024Z,17.80
2023-02-16T13:38:37.401Z,18.80
2023-02-16T13:41:20.860Z,19.58
2023-02-16T13:44:03.824Z,20.02
2023-02-16T13:46:45.868Z,18.75
2023-02-16T13:49:36.156Z,18.92
2023-02-16T13:52:04.348Z,19.50
2023-02-16T13:54:36.630Z,19.60
2023-02-16T13:57:04.932Z,19.30
2023-02-16T13:59:37.529Z,21.90
2023-02-16T14:02:11.350Z,19.17
2023-02-16T14:04:38.613Z,30.35
2023-02-16T14:07:07.255Z,35.47
2023-02-16T14:09:36.845Z,28.88
2023-02-16T14:12:36.098Z,24.52
2023-02-16T14:15:18.373Z,26.27
2023-02-16T14:17:47.469Z,20.92
2023-02-16T14:20:14.933Z,21.33
2023-02-16T14:23:00.374Z,21.27
2023-02-16T14:25:30.755Z,20.92
2023-02-16T14:28:07.253Z,21.73
2023-02-16T14:30:56.066Z,21.60
2023-02-16T14:33:39.096Z,22.05
2023-02-16T14:36:14.025Z,22.42
2023-02-16T14:38:41.646Z,22.42
2023-02-16T14:41:29.929Z,22.08
2023-02-16T14:44:06.259Z,22.00
2023-02-16T14:46:52.258Z,23.17
2023-02-16T14:49:38.546Z,23.75
2023-02-16T14:52:28.679Z,22.67
2023-02-16T14:55:53.421Z,22.10
2023-02-16T14:58:29.388Z,22.08
2023-02-16T15:01:05.943Z,24.17
2023-02-16T15:03:46.645Z,23.65
2023-02-16T15:06:26.341Z,25.73
2023-02-16T15:08:59.040Z,25.40
2023-02-16T15:11:35.546Z,26.13
2023-02-16T15:14:09.524Z,23.85
2023-02-16T15:16:40.367Z,24.00
2023-02-16T15:19:22.868Z,25.60
2023-02-16T15:22:07.787Z,23.83
2023-02-16T15:24:34.771Z,25.48
2023-02-16T15:27:02.728Z,25.33
2023-02-16T15:29:30.645Z,25.13
2023-02-16T15:31:59.343Z,26.13
2023-02-16T15:34:36.338Z,25.27
2023-02-16T15:37:24.219Z,25.23
2023-02-16T15:40:12.122Z,24.15
2023-02-16T15:42:41.008Z,25.08
2023-02-16T15:47:53.652Z,25.08
2023-02-16T15:50:27.099Z,23.65
2023-02-16T15:52:56.501Z,23.58
2023-02-16T15:57:51.197Z,24.27
2023-02-16T16:00:21.388Z,23.42
2023-02-16T16:02:58.285Z,22.90
2023-02-16T16:05:30.106Z,24.52
2023-02-16T16:07:57.270Z,27.27
2023-02-16T16:10:26.521Z,22.88
2023-02-16T16:12:59.057Z,22.77
2023-02-16T16:15:29.157Z,27.55
2023-02-16T16:17:59.709Z,24.88
2023-02-16T16:20:33.073Z,22.30
2023-02-16T16:23:04.508Z,23.95
2023-02-16T16:25:34.811Z,25.00
2023-02-16T16:28:03.451Z,23.88
2023-02-16T16:30:33.330Z,25.33
2023-02-16T16:33:08.922Z,24.98
2023-02-16T16:35:45.007Z,26.17
2023-02-16T16:38:25.265Z,25.30
2023-02-16T16:40:55.324Z,24.02
2023-02-16T16:46:17.918Z,22.95
2023-02-16T16:48:48.343Z,25.25
2023-02-16T16:51:39.936Z,24.50
2023-02-16T16:54:30.431Z,24.27
2023-02-16T16:56:57.730Z,23.42
2023-02-16T16:59:24.292Z,24.50
2023-02-16T17:01:53.064Z,23.75
2023-02-16T17:04:19.768Z,24.23
2023-02-16T17:06:48.471Z,23.55
2023-02-16T17:09:16.839Z,26.15
2023-02-16T17:11:44.222Z,23.90
2023-02-16T17:14:16.712Z,24.90
2023-02-16T17:16:47.220Z,24.20
2023-02-16T17:19:16.235Z,24.45
2023-02-16T17:21:44.322Z,23.55
2023-02-16T17:24:11.590Z,25.95
2023-02-16T17:26:39.524Z,26.10
2023-02-16T17:29:07.112Z,26.55
2023-02-16T17:31:34.926Z,25.50
2023-02-16T17:34:01.536Z,28.25
2023-02-16T17:36:29.194Z,26.73
2023-02-16T17:38:55.808Z,26.48
2023-02-16T17:41:28.399Z,27.35
2023-02-16T17:43:54.993Z,28.63
2023-02-16T17:46:23.576Z,29.77
2023-02-16T17:48:54.936Z,29.10
2023-02-16T17:51:24.707Z,27.88
2023-02-16T17:53:51.600Z,26.50
2023-02-16T17:56:21.955Z,26.00
2023-02-16T17:58:48.704Z,27.25
2023-02-16T18:01:17.845Z,26.60
2023-02-16T18:03:44.603Z,27.20
2023-02-16T18:06:19.890Z,27.50
2023-02-16T18:08:46.939Z,25.38
2023-02-16T18:11:14.596Z,24.60
2023-02-16T18:13:41.308Z,26.50
2023-02-16T18:16:13.483Z,26.00
2023-02-16T18:18:40.180Z,26.00
2023-02-16T18:21:07.844Z,27.08
2023-02-16T18:23:34.485Z,27.08
2023-02-16T18:26:02.144Z,27.27
2023-02-16T18:28:31.404Z,25.77
2023-02-16T18:30:58.966Z,26.98
2023-02-16T18:33:26.318Z,28.17
2023-02-16T18:35:57.731Z,28.27
2023-02-16T18:38:25.030Z,27.00
2023-02-16T18:40:54.277Z,27.52
2023-02-16T18:43:21.866Z,29.08
2023-02-16T18:45:49.442Z,29.92
2023-02-16T18:48:16.100Z,27.95
2023-02-16T18:50:43.063Z,26.50
2023-02-16T18:53:09.670Z,26.65
2023-02-16T18:55:36.912Z,27.17
2023-02-16T18:58:07.455Z,26.30
2023-02-16T19:00:36.402Z,26.63
2023-02-16T19:03:03.236Z,26.40
2023-02-16T19:05:30.842Z,24.92
2023-02-16T19:07:57.483Z,25.27
2023-02-16T19:10:25.512Z,27.52
2023-02-16T19:12:52.304Z,26.38
2023-02-16T19:15:19.614Z,23.98
2023-02-16T19:17:46.155Z,26.33
2023-02-16T19:20:18.547Z,24.55
2023-02-16T19:22:46.553Z,25.45
2023-02-16T19:25:14.526Z,24.67
2023-02-16T19:27:42.035Z,25.33
2023-02-16T19:30:09.003Z,25.17
2023-02-16T19:32:36.088Z,23.23
2023-02-16T19:35:03.622Z,21.73
2023-02-16T19:37:30.899Z,22.70
2023-02-16T19:39:57.795Z,23.33
2023-02-16T19:42:24.771Z,22.27
2023-02-16T19:44:51.497Z,21.30
2023-02-16T19:47:18.907Z,20.38
2023-02-16T19:49:45.710Z,21.23
2023-02-16T19:52:12.700Z,20.77
2023-02-16T19:54:39.533Z,19.65
2023-02-16T19:57:06.198Z,19.85
2023-02-16T19:59:33.303Z,20.02
2023-02-16T20:02:00.441Z,19.25
2023-02-16T20:04:28.467Z,20.00
2023-02-16T20:06:56.362Z,19.67
2023-02-16T20:09:24.515Z,18.88
2023-02-16T20:11:51.913Z,18.70
2023-02-16T20:14:18.511Z,18.60
2023-02-16T20:16:45.204Z,18.80
2023-02-16T20:19:12.455Z,18.92
2023-02-16T20:21:40.819Z,17.80
2023-02-16T20:24:07.607Z,17.70
2023-02-16T20:26:40.780Z,18.15
2023-02-16T20:29:10.057Z,18.17
2023-02-16T20:31:48.554Z,19.45
2023-02-16T20:34:16.055Z,17.95
2023-02-16T20:36:42.883Z,16.83
2023-02-16T20:39:09.736Z,16.67
2023-02-16T20:41:36.960Z,18.60
2023-02-16T20:44:04.491Z,17.25
2023-02-16T20:46:31.082Z,17.13
2023-02-16T20:48:58.337Z,17.75
2023-02-16T20:51:25.293Z,15.98
2023-02-16T20:53:52.653Z,16.15
2023-02-16T20:56:22.109Z,16.55
2023-02-16T21:01:24.344Z,17.17
2023-02-16T21:03:52.581Z,17.65
2023-02-16T21:06:19.775Z,18.13
2023-02-16T21:08:47.459Z,16.48
2023-02-16T21:11:14.265Z,16.85
2023-02-16T21:13:42.100Z,16.40
2023-02-16T21:16:08.897Z,16.48
2023-02-16T21:18:39.992Z,17.30
2023-02-16T21:21:07.563Z,17.15
2023-02-16T21:23:35.050Z,16.95
2023-02-16T21:26:04.462Z,17.38
2023-02-16T21:28:31.964Z,17.20
